EmailTwitter


Observations de surface / France / LFBP (07610)

Régions: Québec | Canada | États-Unis | Europe | France | UK | Ailleurs
Station
Affichage
Infos & localisation pour LFBP (07610) | Aide pour décoder les METARs

Observations prises le 2019-02-18 à 06H30 UTC à PONT-LONG-UZEIN/, FR (LFBP)

Température: 4.0 Celsius

Point de rosée: 2.0 Celsius

Humidité relative: 87%

Vents: Est à 7 km/h ou 4 noeuds.

Pression au niveau moyen de la mer: 101.70 kilopascals.

Observation METAR:

LFBP 180630Z AUTO 08004KT 020V110 CAVOK 04/02 Q1017 NOSIG=